This is the latest recevied weather packets stored in our database for station/object ED1ZAI-13. If no packets are shown the sender has not sent any weather packets the latest 10 day(s).
| Time | Temp. | Humidity | Pressure | Rain* | Wind** | Luminosity | Snow |
|---|---|---|---|---|---|---|---|
| 1777522952 | 10.56° C | 88% | 1014.2 hPa | 0 mm | - | - | - |
| 1777522352 | 10.56° C | 87% | 1014.1 hPa | 0 mm | - | - | - |
| 1777521751 | 10.56° C | 87% | 1014 hPa | 0 mm | - | - | - |
| 1777521525 | 11.11° C | 86% | 1014 hPa | 0 mm | - | - | - |
| 1777520927 | 11.11° C | 85% | 1013.9 hPa | 0 mm | - | - | - |
| 1777520326 | 11.67° C | 85% | 1013.7 hPa | 0 mm | - | - | - |
| 1777519724 | 11.67° C | 85% | 1013.6 hPa | 0 mm | - | - | - |
| 1777519126 | 11.11° C | 87% | 1014 hPa | 0 mm | - | - | - |
| 1777518526 | 11.11° C | 86% | 1013.7 hPa | 0 mm | - | - | - |
| 1777517925 | 11.11° C | 85% | 1013.6 hPa | 0 mm | - | - | - |
| 1777517179 | 11.11° C | 86% | 1013.7 hPa | 0 mm | - | - | - |
| 1777516578 | 11.11° C | 87% | 1013.9 hPa | 0 mm | - | - | - |
| 1777515978 | 10.56° C | 87% | 1013.7 hPa | 0 mm | - | - | - |
| 1777515380 | 10.56° C | 87% | 1013.5 hPa | 0 mm | - | - | - |
| 1777514780 | 11.11° C | 84% | 1013.1 hPa | 0.51 mm | - | - | - |
| 1777514179 | 11.67° C | 84% | 1012.9 hPa | 0.51 mm | - | - | - |
| 1777513579 | 11.67° C | 84% | 1013 hPa | 0.51 mm | - | - | - |
| 1777512979 | 11.11° C | 86% | 1013.2 hPa | 0.51 mm | - | - | - |
| 1777512378 | 11.11° C | 84% | 1013 hPa | 1.52 mm | - | - | - |
| 1777511778 | 11.67° C | 86% | 1013.1 hPa | 1.52 mm | - | - | - |
| 1777511178 | 11.11° C | 86% | 1013.4 hPa | 1.02 mm | - | - | - |
| 1777510577 | 11.11° C | 87% | 1013.5 hPa | 1.02 mm | - | - | - |
| 1777509977 | 11.67° C | 85% | 1013.3 hPa | 1.02 mm | - | - | - |
| 1777509379 | 11.11° C | 86% | 1013.5 hPa | 1.02 mm | - | - | - |
| 1777508778 | 11.11° C | 85% | 1013.4 hPa | 0 mm | - | - | - |
* Rain latest hour (hover to see other rain measurements)
** Current wind speed in m/s (hover to see current wind gust speed)